Mineola, Texas
Current Conditions -  °F | °C
As of 6:15 AM on Sunday 23 Nov 2014 (Local Time) from KJDD Reporting Station
Haze Haze  
Wind Chill: 59°   Ceiling: 4800
Heat Index: 59°   Visibility: 3mi
Dew Point: 59°   Wind: 3mph
Humidity: 100%   Direction: 100°E
Pressure: 29.6"   Gusts: NA
Location:  32.66°N, 95.49°W
Report Text: KJDD 231215Z AUTO 10003KT 3SM BR SCT014 BKN048 OVC085 15/15 A2960 RMK AO2
Loading
Personal Weather Stations






























Interactive Weather Map New forecast layout! Learn more

10-Day Weather Forecast

Advertisements
Track Severe Weather on mobile